Latest Weather Observations for Beerburrum

IDQ60801

Issued at 10:02 pm EST Thursday 23 March 2017 (issued every 30 minutes, with the page automatically refreshed every 10 minutes)

About weather observations | Map of weather stations | Latest weather observations for QLD | Other Formats
Station Details ID: 040284 Name: BEERBURRUM FOREST STATION Lat: -26.96 Lon: 152.96 Height: 48.0 m
Data from the previous 72 hours. | See also: Recent months at Beerburrum
Date/Time
EST
Temp
°C
App
Temp
°C
Dew
Point
°C
Rel
Hum
%
Delta-T
°C
Wind Press
QNH
hPa
Press
MSL
hPa
Rain since
9am
mm
Dir  Spd
km/h
Gust
km/h
Spd
kts
Gust
kts
23/10:00pm 22.9 27.2 21.2 90 1.1 CALM 0 0 0 0 - - 0.2
23/09:30pm 23.2 27.6 21.3 89 1.3 CALM 0 0 0 0 - - 0.2
23/09:00pm 23.6 28.1 21.5 88 1.4 CALM 0 0 0 0 - - 0.2
23/08:30pm 23.8 28.3 21.5 87 1.5 CALM 0 0 0 0 - - 0.2
23/08:00pm 23.7 28.1 21.4 87 1.5 CALM 0 0 0 0 - - 0.2
23/07:30pm 24.1 28.5 21.4 85 1.8 CALM 0 0 0 0 - - 0.2
23/07:00pm 24.3 28.2 21.2 83 2.0 N 2 6 1 3 - - 0.2
23/06:30pm 24.7 28.7 22.0 85 1.8 NE 4 7 2 4 - - 0.2
23/06:00pm 24.8 29.3 21.5 82 2.2 CALM 0 0 0 0 - - 0.2
23/05:30pm 25.8 30.4 21.7 78 2.7 CALM 0 0 0 0 - - 0.2
23/05:00pm 26.2 30.6 21.4 75 3.2 CALM 0 4 0 2 - - 0.2
23/04:30pm 26.6 30.6 21.4 73 3.5 ENE 2 6 1 3 - - 0.2
23/04:00pm 27.2 30.6 21.0 69 4.1 E 4 9 2 5 - - 0.2
23/03:30pm 27.5 31.6 21.5 70 4.0 NE 2 6 1 3 - - 0.2
23/03:00pm 27.4 30.5 21.0 68 4.2 NE 6 7 3 4 - - 0.2
23/02:30pm 28.0 31.1 20.3 63 5.1 NE 4 9 2 5 - - 0.2
23/02:00pm 28.2 30.6 18.9 57 6.0 NE 4 7 2 4 - - 0.2
23/01:30pm 28.3 30.7 20.1 61 5.4 ENE 7 13 4 7 - - 0.2
23/01:00pm 28.0 30.9 20.6 64 4.9 NNE 6 9 3 5 - - 0.2
23/12:30pm 27.7 31.9 21.7 70 4.0 N 2 7 1 4 - - 0.0
23/12:00pm 26.9 30.5 20.5 68 4.2 N 2 6 1 3 - - 0.0
23/11:30am 26.5 29.6 20.3 68 4.1 N 4 11 2 6 - - 0.0
23/11:00am 26.5 29.7 21.3 73 3.5 N 6 11 3 6 - - 0.0
23/10:30am 25.7 28.9 21.6 78 2.7 N 7 11 4 6 - - 0.0
23/10:00am 25.3 28.5 21.6 80 2.5 N 7 11 4 6 - - 0.0
23/09:30am 24.8 28.4 22.1 85 1.8 N 6 9 3 5 - - 0.0
23/09:00am 24.2 27.4 21.7 86 1.7 N 7 13 4 7 - - 5.8
23/08:30am 24.1 28.3 22.4 90 1.1 NNE 4 7 2 4 - - 5.8
23/08:00am 23.9 28.8 22.3 91 1.1 CALM 0 0 0 0 - - 5.8
23/07:30am 23.3 28.0 21.9 92 0.9 CALM 0 0 0 0 - - 5.8
23/07:00am 23.1 27.7 21.7 92 0.9 CALM 0 0 0 0 - - 5.8
23/06:30am 22.8 27.2 21.4 92 0.9 CALM 0 0 0 0 - - 5.8
23/06:00am 22.7 27.1 21.3 92 0.9 CALM 0 0 0 0 - - 5.8
23/05:30am 22.8 27.2 21.4 92 0.9 CALM 0 0 0 0 - - 5.8
23/05:00am 22.7 27.1 21.3 92 0.9 CALM 0 0 0 0 - - 5.8
23/04:30am 22.8 27.2 21.4 92 0.9 CALM 0 0 0 0 - - 5.8
23/04:00am 22.8 27.2 21.4 92 0.9 CALM 0 0 0 0 - - 5.8
23/03:30am 22.7 27.1 21.3 92 0.9 CALM 0 0 0 0 - - 5.6
23/03:00am 22.7 27.1 21.3 92 0.9 CALM 0 0 0 0 - - 5.6
23/02:30am 22.6 26.9 21.2 92 0.9 CALM 0 0 0 0 - - 5.6
23/02:00am 22.7 27.1 21.3 92 0.9 CALM 0 0 0 0 - - 5.6
23/01:30am 22.7 27.1 21.3 92 0.9 CALM 0 0 0 0 - - 5.6
23/01:00am 22.8 27.2 21.4 92 0.9 CALM 0 0 0 0 - - 5.6
23/12:30am 22.8 27.2 21.4 92 0.9 CALM 0 0 0 0 - - 5.6
23/12:00am 22.8 27.2 21.4 92 0.9 CALM 0 0 0 0 - - 5.6
 
Date/Time
EST
Temp
°C
App
Temp
°C
Dew
Point
°C
Rel
Hum
%
Delta-T
°C
Wind Press
QNH
hPa
Press
MSL
hPa
Rain since
9am
mm
Dir  Spd
km/h
Gust
km/h
Spd
kts
Gust
kts
22/11:30pm 22.9 27.4 21.5 92 0.9 CALM 0 0 0 0 - - 5.6
22/11:00pm 23.0 27.5 21.6 92 0.9 CALM 0 0 0 0 - - 5.6
22/10:30pm 23.0 27.5 21.6 92 0.9 CALM 0 0 0 0 - - 5.6
22/10:00pm 23.0 27.5 21.6 92 0.9 CALM 0 0 0 0 - - 5.6
22/09:30pm 23.1 27.7 21.7 92 0.9 CALM 0 0 0 0 - - 5.6
22/09:00pm 23.1 27.7 21.7 92 0.9 CALM 0 0 0 0 - - 5.6
22/08:30pm 23.2 27.7 21.6 91 1.1 CALM 0 0 0 0 - - 5.6
22/08:00pm 23.3 27.5 21.7 91 1.1 N 2 6 1 3 - - 5.6
22/07:30pm 23.5 28.2 21.9 91 1.1 CALM 0 0 0 0 - - 5.6
22/07:00pm 23.5 28.2 21.9 91 1.1 CALM 0 0 0 0 - - 5.6
22/06:30pm 23.7 28.4 22.0 90 1.1 CALM 0 0 0 0 - - 5.6
22/06:00pm 23.9 28.6 22.0 89 1.3 CALM 0 0 0 0 - - 5.6
22/05:30pm 24.3 29.1 22.2 88 1.4 CALM 0 0 0 0 - - 5.6
22/05:00pm 24.5 29.3 22.2 87 1.5 CALM 0 0 0 0 - - 5.6
22/04:30pm 24.6 29.5 22.3 87 1.5 CALM 0 0 0 0 - - 5.6
22/04:00pm 24.9 30.0 22.6 87 1.5 CALM 0 6 0 3 - - 5.6
22/03:30pm 24.5 29.1 21.8 85 1.8 CALM 0 0 0 0 - - 5.6
22/03:00pm 24.2 29.0 22.1 88 1.4 CALM 0 0 0 0 - - 5.6
22/02:30pm 23.8 27.4 22.1 90 1.1 S 6 7 3 4 - - 5.6
22/02:00pm 23.6 26.9 21.5 88 1.4 NNW 6 9 3 5 - - 5.4
22/01:30pm 23.3 26.4 21.4 89 1.3 NNW 7 13 4 7 - - 4.8
22/01:00pm 24.5 29.0 22.2 87 1.5 NNW 2 9 1 5 - - 2.2
22/12:30pm 24.6 29.0 22.1 86 1.7 W 2 7 1 4 - - 1.4
22/12:00pm 24.9 29.2 22.6 87 1.5 NW 4 9 2 5 - - 0.6
22/11:30am 24.7 29.4 22.0 85 1.8 CALM 0 6 0 3 - - 0.4
22/11:00am 24.8 28.2 21.7 83 2.1 NNW 6 9 3 5 - - 0.0
22/10:30am 25.3 28.6 21.4 79 2.6 ENE 6 11 3 6 - - 0.0
22/10:00am 26.8 30.4 22.0 75 3.2 N 6 7 3 4 - - 0.0
22/09:30am 26.3 30.1 22.4 79 2.6 N 6 9 3 5 - - 0.0
22/09:00am 25.1 29.7 21.8 82 2.2 CALM 0 0 0 0 - - 8.0
22/08:30am 24.4 29.3 22.3 88 1.4 CALM 0 0 0 0 - - 8.0
22/08:00am 23.5 28.1 21.8 90 1.1 CALM 0 0 0 0 - - 8.0
22/07:30am 23.0 27.5 21.6 92 0.9 CALM 0 0 0 0 - - 8.0
22/07:00am 22.6 26.9 21.2 92 0.9 CALM 0 0 0 0 - - 8.0
22/06:30am 22.4 26.6 21.0 92 0.9 CALM 0 0 0 0 - - 8.0
22/06:00am 22.3 26.5 20.9 92 0.9 CALM 0 0 0 0 - - 8.0
22/05:30am 22.3 26.5 20.9 92 0.9 CALM 0 0 0 0 - - 7.6
22/05:00am 22.3 26.5 20.9 92 0.9 CALM 0 0 0 0 - - 7.6
22/04:30am 22.2 25.9 20.8 92 0.9 N 2 7 1 4 - - 7.2
22/04:00am 22.2 25.2 20.8 92 0.9 N 6 9 3 5 - - 6.4
22/03:30am 22.2 25.1 20.7 91 1.0 NNW 6 9 3 5 - - 4.2
22/03:00am 22.6 26.5 21.2 92 0.9 N 2 6 1 3 - - 1.0
22/02:30am 22.7 27.0 21.2 91 1.0 CALM 0 0 0 0 - - 0.8
22/02:00am 22.8 27.2 21.4 92 0.9 CALM 0 0 0 0 - - 0.8
22/01:30am 22.7 27.0 21.2 91 1.0 CALM 0 0 0 0 - - 0.6
22/01:00am 22.7 27.1 21.3 92 0.9 CALM 0 2 0 1 - - 0.6
22/12:30am 22.7 27.0 21.2 91 1.0 CALM 0 0 0 0 - - 0.6
22/12:00am 22.7 27.0 21.2 91 1.0 CALM 0 6 0 3 - - 0.6
 
Date/Time
EST
Temp
°C
App
Temp
°C
Dew
Point
°C
Rel
Hum
%
Delta-T
°C
Wind Press
QNH
hPa
Press
MSL
hPa
Rain since
9am
mm
Dir  Spd
km/h
Gust
km/h
Spd
kts
Gust
kts
21/11:30pm 22.7 27.0 21.2 91 1.0 CALM 0 0 0 0 - - 0.6
21/11:00pm 22.9 27.2 21.2 90 1.1 CALM 0 0 0 0 - - 0.6
21/10:30pm 23.0 27.3 21.1 89 1.2 CALM 0 0 0 0 - - 0.6
21/10:00pm 23.3 27.3 21.4 89 1.3 E 2 7 1 4 - - 0.4
21/09:30pm 23.4 26.3 21.7 90 1.1 N 9 13 5 7 - - 0.2
21/09:00pm 23.4 28.0 21.7 90 1.1 CALM 0 0 0 0 - - 0.2
21/08:30pm 23.4 27.9 21.5 89 1.3 CALM 0 0 0 0 - - 0.2
21/08:00pm 23.7 27.4 21.4 87 1.5 N 4 9 2 5 - - 0.2
21/07:30pm 24.0 28.4 21.3 85 1.8 CALM 0 0 0 0 - - 0.2
21/07:00pm 24.2 28.5 21.1 83 2.0 CALM 0 0 0 0 - - 0.2
21/06:30pm 24.5 28.6 20.8 80 2.4 CALM 0 0 0 0 - - 0.2
21/06:00pm 25.2 29.0 20.9 77 2.8 E 2 9 1 5 - - 0.2
21/05:30pm 26.1 29.1 20.9 73 3.4 E 6 13 3 7 - - 0.2
21/05:00pm 26.9 29.6 20.7 69 4.1 E 7 17 4 9 - - 0.2
21/04:30pm 27.3 29.9 20.1 64 4.7 E 6 11 3 6 - - 0.2
21/04:00pm 28.1 30.7 20.4 63 5.1 E 7 13 4 7 - - 0.2
21/03:30pm 28.7 31.8 21.5 65 4.8 E 7 13 4 7 - - 0.2
21/03:00pm 28.8 31.6 20.8 62 5.3 ENE 7 15 4 8 - - 0.2
21/02:30pm 28.4 30.7 20.7 63 5.1 E 9 17 5 9 - - 0.2
21/02:00pm 28.7 30.9 20.4 60 5.5 NE 9 19 5 10 - - 0.2
21/01:30pm 29.1 31.9 20.8 61 5.5 E 7 15 4 8 - - 0.2
21/01:00pm 28.9 31.3 20.1 59 5.8 E 7 13 4 7 - - 0.2
21/12:30pm 28.3 30.8 20.3 62 5.3 E 7 13 4 7 - - 0.2
21/12:00pm 28.4 30.4 19.9 60 5.6 E 9 19 5 10 - - 0.2
21/11:30am 29.0 30.4 18.7 53 6.6 E 9 17 5 9 - - 0.2
21/11:00am 28.5 30.9 20.0 60 5.6 E 7 17 4 9 - - 0.2
21/10:30am 28.6 30.9 20.6 62 5.3 NE 9 15 5 8 - - 0.2
21/10:00am 28.1 31.3 21.6 68 4.4 ENE 7 15 4 8 - - 0.2
21/09:30am 28.0 31.5 22.2 70 3.9 E 7 13 4 7 - - 0.0
21/09:00am 26.6 30.9 22.7 79 2.6 NE 4 7 2 4 - - 16.2
21/08:30am 25.2 30.5 23.1 88 1.4 CALM 0 0 0 0 - - 16.2
21/08:00am 23.9 28.9 22.5 92 0.9 CALM 0 2 0 1 - - 16.2
21/07:30am 23.4 27.9 22.2 93 0.8 SW 2 6 1 3 - - 16.2
21/07:00am 22.8 27.3 21.6 93 0.8 CALM 0 0 0 0 - - 16.2
21/06:30am 22.6 27.0 21.4 93 0.8 CALM 0 0 0 0 - - 16.2
21/06:00am 22.4 26.7 21.2 93 0.8 CALM 0 0 0 0 - - 16.2
21/05:30am 22.4 26.7 21.2 93 0.8 CALM 0 0 0 0 - - 16.2
21/05:00am 22.4 26.6 21.0 92 0.9 CALM 0 0 0 0 - - 16.2
21/04:30am 22.4 26.6 21.0 92 0.9 CALM 0 0 0 0 - - 16.2
21/04:00am 22.4 26.6 21.0 92 0.9 CALM 0 6 0 3 - - 16.2
21/03:30am 22.4 26.6 21.0 92 0.9 CALM 0 0 0 0 - - 16.2
21/03:00am 22.4 25.8 21.0 92 0.9 E 4 7 2 4 - - 16.2
21/02:30am 22.6 26.9 21.2 92 0.9 CALM 0 0 0 0 - - 15.8
21/02:00am 22.7 27.1 21.3 92 0.9 CALM 0 0 0 0 - - 15.2
21/01:30am 22.8 26.5 21.4 92 0.9 NNE 4 7 2 4 - - 14.6
21/01:00am 22.7 27.1 21.3 92 0.9 CALM 0 0 0 0 - - 14.2
21/12:30am 22.7 27.0 21.2 91 1.0 CALM 0 0 0 0 - - 14.2
21/12:00am 22.8 26.0 21.3 91 1.0 N 6 11 3 6 - - 14.2
 
Date/Time
EST
Temp
°C
App
Temp
°C
Dew
Point
°C
Rel
Hum
%
Delta-T
°C
Wind Press
QNH
hPa
Press
MSL
hPa
Rain since
9am
mm
Dir  Spd
km/h
Gust
km/h
Spd
kts
Gust
kts
20/11:30pm 23.1 27.6 21.5 91 1.1 CALM 0 0 0 0 - - 13.8
20/11:00pm 23.3 26.7 21.7 91 1.1 N 6 11 3 6 - - 13.8
20/10:30pm 23.5 27.1 22.1 92 0.9 NNE 6 11 3 6 - - 13.8

Other Formats:

Comma delimited format used in spreadsheet applications
http://www.bom.gov.au/fwo/IDQ60801/IDQ60801.95566.axf

JavaScript Object Notation format (JSON) in row-major order
http://www.bom.gov.au/fwo/IDQ60801/IDQ60801.95566.json